Time;durP1;ratioP1;P1;durP2;ratioP2;P2;SDS_P1;SDS_P2;PMS_P1;PMS_P2;Temp;Humidity;BMP_temperature;BMP_pressure;BME280_temperature;BME280_humidity;BME280_pressure;Samples;Min_cycle;Max_cycle;Signal;HPM_P1;HPM_P2
2022/11/15 05:17:02;;;;;;;;;;;;;;;5.41;100.00;99048.97;5005874;23;19935;-84
2022/11/15 05:19:27;;;;;;;;;;;;;;;5.40;100.00;99055.13;4955650;28;19926;-84
2022/11/15 05:21:52;;;;;;;;;;;;;;;5.46;100.00;99049.69;4957015;29;20301;-82
2022/11/15 05:24:18;;;;;;;;;;;;;;;5.41;100.00;99041.94;4956813;29;19918;-84
2022/11/15 05:26:43;;;;;;;;;;;;;;;5.50;100.00;99045.16;4955548;29;19926;-85
2022/11/15 05:29:09;;;;;;;;;;;;;;;5.42;100.00;99040.16;4956850;29;19918;-84
2022/11/15 05:31:38;;;;;;;;;;;;;;;5.41;100.00;99041.94;4955571;28;19918;-84
2022/11/15 05:34:04;;;;;;;;;;;;;;;5.40;100.00;99039.38;4956698;28;19918;-85
2022/11/15 05:36:39;;;;;;;;;;;;;;;5.40;100.00;99034.97;4956597;28;19925;-84
2022/11/15 05:39:05;;;;;;;;;;;;;;;5.41;100.00;99046.34;4956606;28;19919;-85
2022/11/15 05:41:33;;;;;;;;;;;;;;;5.45;100.00;99038.28;4971722;28;20305;-86
2022/11/15 05:43:59;;;;;;;;;;;;;;;5.45;100.00;99042.69;4956603;28;19915;-83
2022/11/15 05:46:25;;;;;;;;;;;;;;;5.43;100.00;99040.13;4953850;29;19977;-83
2022/11/15 05:48:52;;;;;;;;;;;;;;;5.42;100.00;99038.38;4956487;28;19922;-83
2022/11/15 05:51:19;;;;;;;;;;;;;;;5.45;100.00;99040.06;4956412;28;19922;-84
2022/11/15 05:53:44;;;;;;;;;;;;;;;5.41;100.00;99035.84;4954987;29;19922;-84
2022/11/15 05:56:09;;;;;;;;;;;;;;;5.41;100.00;99039.31;4956386;28;19921;-82
2022/11/15 05:58:35;;;;;;;;;;;;;;;5.38;100.00;99043.81;4956174;28;19918;-82
2022/11/15 06:01:01;;;;;;;;;;;;;;;5.40;100.00;99042.00;4954969;28;20017;-84
2022/11/15 06:03:26;;;;;;;;;;;;;;;5.45;100.00;99047.94;4955995;29;20162;-84
2022/11/15 06:05:51;;;;;;;;;;;;;;;5.45;100.00;99042.69;4971079;28;19961;-82
2022/11/15 06:08:16;;;;;;;;;;;;;;;5.42;100.00;99042.78;4956159;29;19922;-82
2022/11/15 06:10:42;;;;;;;;;;;;;;;5.40;100.00;99036.75;4955973;29;19919;-82
2022/11/15 06:13:07;;;;;;;;;;;;;;;5.41;100.00;99038.47;4956152;29;20362;-84
2022/11/15 06:15:34;;;;;;;;;;;;;;;5.38;100.00;99033.31;4953374;29;20286;-82
2022/11/15 06:17:59;;;;;;;;;;;;;;;5.36;100.00;99040.38;4970558;28;20009;-83
2022/11/15 06:20:25;;;;;;;;;;;;;;;5.36;100.00;99036.00;4956093;28;19962;-82
2022/11/15 06:22:50;;;;;;;;;;;;;;;5.40;100.00;99029.72;4954950;28;19976;-82
2022/11/15 06:25:15;;;;;;;;;;;;;;;5.37;100.00;99031.59;4955851;29;19918;-83
2022/11/15 06:27:41;;;;;;;;;;;;;;;5.37;100.00;99039.47;4955745;29;19918;-84
2022/11/15 06:30:06;;;;;;;;;;;;;;;5.39;100.00;99041.16;4954504;29;20054;-83
2022/11/15 06:32:32;;;;;;;;;;;;;;;5.39;100.00;99043.78;4970394;28;19918;-83
2022/11/15 06:34:57;;;;;;;;;;;;;;;5.40;100.00;99044.63;4955690;29;19974;-82
2022/11/15 06:37:22;;;;;;;;;;;;;;;5.40;100.00;99044.63;4954424;29;19918;-83
2022/11/15 06:39:47;;;;;;;;;;;;;;;5.43;100.00;99039.25;4955357;29;19929;-83
2022/11/15 06:42:12;;;;;;;;;;;;;;;5.40;100.00;99039.38;4955563;29;19922;-83
2022/11/15 06:44:38;;;;;;;;;;;;;;;5.39;100.00;99042.91;4952772;29;19918;-83
2022/11/15 06:47:03;;;;;;;;;;;;;;;5.37;100.00;99039.47;4970311;28;20366;-84
2022/11/15 06:49:28;;;;;;;;;;;;;;;5.36;100.00;99045.63;4954166;29;20013;-83
2022/11/15 06:51:53;;;;;;;;;;;;;;;5.37;100.00;99044.72;4955350;29;19922;-83
2022/11/15 06:54:20;;;;;;;;;;;;;;;5.38;100.00;99047.31;4955449;29;20334;-83
2022/11/15 06:56:45;;;;;;;;;;;;;;;5.38;100.00;99046.44;4970148;28;19942;-83
2022/11/15 06:59:11;;;;;;;;;;;;;;;5.38;100.00;99059.59;4954088;29;20378;-82
2022/11/15 07:01:36;;;;;;;;;;;;;;;5.34;100.00;99053.56;4953904;29;19968;-84
2022/11/15 07:04:01;;;;;;;;;;;;;;;5.37;100.00;99055.22;4955256;29;20381;-83
2022/11/15 07:06:26;;;;;;;;;;;;;;;5.40;100.00;99060.38;4954061;29;20042;-83
2022/11/15 07:08:52;;;;;;;;;;;;;;;5.37;100.00;99063.97;4955152;29;19919;-82
2022/11/15 07:11:17;;;;;;;;;;;;;;;5.34;100.00;99055.34;4955197;29;20254;-82
2022/11/15 07:13:42;;;;;;;;;;;;;;;5.38;100.00;99047.31;4955149;29;19919;-83
2022/11/15 08:57:09;;;;;;;;;;;;;;;5.33;100.00;99015.06;4906479;28;19962;-82
2022/11/15 08:59:37;;;;;;;;;;;;;;;5.33;100.00;99016.81;4936759;29;19954;-83
2022/11/15 09:02:03;;;;;;;;;;;;;;;5.30;100.00;99009.91;4935644;29;19978;-82
2022/11/15 09:04:28;;;;;;;;;;;;;;;5.32;100.00;99015.13;4932817;29;20318;-82
2022/11/15 09:06:53;;;;;;;;;;;;;;;5.37;100.00;99018.44;4937819;29;19965;-81
2022/11/15 09:09:19;;;;;;;;;;;;;;;5.37;100.00;99013.19;4936385;29;19978;-82
2022/11/15 09:11:47;;;;;;;;;;;;;;;5.35;100.00;99015.03;4935361;29;19929;-84
2022/11/15 09:14:13;;;;;;;;;;;;;;;5.33;100.00;99014.19;4936794;29;20342;-81
2022/11/15 09:16:42;;;;;;;;;;;;;;;5.38;100.00;99009.66;4936734;29;19922;-85
2022/11/15 09:19:07;;;;;;;;;;;;;;;5.42;100.00;99012.13;4936057;29;19962;-82
2022/11/15 09:21:32;;;;;;;;;;;;;;;5.39;100.00;99007.00;4934019;29;19989;-81
2022/11/15 09:23:57;;;;;;;;;;;;;;;5.40;100.00;98998.19;4936846;29;19970;-82
2022/11/15 09:26:23;;;;;;;;;;;;;;;5.36;100.00;98995.69;4936443;29;19965;-82
2022/11/15 09:28:48;;;;;;;;;;;;;;;5.40;100.00;98989.44;4935678;29;20829;-82
2022/11/15 09:31:13;;;;;;;;;;;;;;;5.41;100.00;98988.53;4933879;29;19953;-79
2022/11/15 09:33:39;;;;;;;;;;;;;;;7.55;100.00;98982.91;4936478;29;20290;-81
2022/11/15 09:36:05;;;;;;;;;;;;;;;6.70;100.00;98975.00;4935051;29;19965;-81
2022/11/15 09:38:31;;;;;;;;;;;;;;;6.27;100.00;98972.31;4936790;29;19923;-82
2022/11/15 09:41:09;;;;;;;;;;;;;;;6.02;100.00;98968.91;4936137;29;20449;-81
2022/11/15 09:43:37;;;;;;;;;;;;;;;6.19;100.00;98961.22;4933885;29;20001;-82
2022/11/15 09:46:11;;;;;;;;;;;;;;;6.53;100.00;98965.19;4936471;29;20010;-84
2022/11/15 09:49:09;;;;;;;;;;;;;;;6.83;100.00;98965.72;4936617;29;19926;-81
2022/11/15 09:51:48;;;;;;;;;;;;;;;6.98;100.00;98964.22;4914751;29;19974;-81
2022/11/15 09:54:16;;;;;;;;;;;;;;;7.12;100.00;98966.31;4935907;29;20433;-81
2022/11/15 09:56:43;;;;;;;;;;;;;;;7.23;100.00;98955.31;4935767;29;20010;-81
2022/11/15 09:59:27;;;;;;;;;;;;;;;7.33;100.00;98956.63;4935741;29;19955;-81
2022/11/15 10:02:13;;;;;;;;;;;;;;;7.44;100.00;98946.47;4934313;29;20157;-83
2022/11/15 10:04:40;;;;;;;;;;;;;;;7.50;100.00;98945.38;4931506;29;19927;-82
2022/11/15 10:07:18;;;;;;;;;;;;;;;7.59;100.00;98946.72;4936915;29;20359;-83
2022/11/15 10:09:48;;;;;;;;;;;;;;;7.65;100.00;98943.81;4933056;29;20374;-83
2022/11/15 10:12:14;;;;;;;;;;;;;;;7.71;100.00;98937.44;4934586;29;19926;-84
2022/11/15 10:14:39;;;;;;;;;;;;;;;7.81;100.00;98941.38;4936836;29;19925;-84
2022/11/15 10:17:17;;;;;;;;;;;;;;;7.83;100.00;98931.59;4951184;29;20596;-84
2022/11/15 10:19:45;;;;;;;;;;;;;;;7.88;100.00;98937.53;4936588;29;20009;-84
2022/11/15 10:22:13;;;;;;;;;;;;;;;7.94;100.00;98933.75;4936667;29;19930;-83
2022/11/15 10:24:41;;;;;;;;;;;;;;;7.96;100.00;98926.59;4935978;29;20374;-83
2022/11/15 10:27:17;;;;;;;;;;;;;;;8.05;100.00;98923.56;4934022;29;20453;-83
2022/11/15 10:29:47;;;;;;;;;;;;;;;8.08;100.00;98912.00;4935275;29;20648;-83
2022/11/15 10:32:13;;;;;;;;;;;;;;;8.13;100.00;98915.28;4935128;29;19930;-83
2022/11/15 10:34:38;;;;;;;;;;;;;;;8.15;100.00;98906.38;4936588;29;19919;-83
2022/11/15 10:37:04;;;;;;;;;;;;;;;8.22;100.00;98896.41;4936326;29;20337;-84
2022/11/15 10:39:29;;;;;;;;;;;;;;;8.25;100.00;98890.09;4934764;29;19988;-84
2022/11/15 10:41:55;;;;;;;;;;;;;;;8.28;100.00;98882.03;4932793;29;19929;-82
2022/11/15 10:44:21;;;;;;;;;;;;;;;8.32;100.00;98884.44;4935339;29;20386;-83
2022/11/15 10:46:50;;;;;;;;;;;;;;;8.33;100.00;98880.06;4935572;29;19923;-82
2022/11/15 10:49:17;;;;;;;;;;;;;;;8.37;100.00;98876.31;4935541;29;19978;-83
2022/11/15 10:51:49;;;;;;;;;;;;;;;8.42;100.00;98862.91;4935655;29;20297;-83
2022/11/15 10:54:40;;;;;;;;;;;;;;;8.45;100.00;98861.00;4935333;29;20408;-82
2022/11/15 10:57:19;;;;;;;;;;;;;;;8.48;100.00;98852.06;4922454;29;19933;-83
2022/11/15 10:59:49;;;;;;;;;;;;;;;8.46;100.00;98844.22;4934772;29;20308;-82
2022/11/15 11:02:43;;;;;;;;;;;;;;;8.52;100.00;98838.66;4936168;29;19937;-82
2022/11/15 11:05:27;;;;;;;;;;;;;;;8.58;100.00;98831.34;4934668;29;20017;-83
2022/11/15 11:07:58;;;;;;;;;;;;;;;8.60;100.00;98832.13;4956246;28;19923;-82
2022/11/15 11:10:24;;;;;;;;;;;;;;;8.58;100.00;98828.72;4945632;29;19922;-82
2022/11/15 11:12:50;;;;;;;;;;;;;;;8.64;100.00;98831.03;4954780;28;19919;-83
2022/11/15 11:15:16;;;;;;;;;;;;;;;8.62;100.00;98822.34;4933962;29;20650;-82
2022/11/15 11:18:00;;;;;;;;;;;;;;;8.66;100.00;98813.34;4936029;29;20001;-82
2022/11/15 11:20:28;;;;;;;;;;;;;;;8.71;100.00;98817.47;4934051;29;19941;-83
2022/11/15 11:22:54;;;;;;;;;;;;;;;8.75;100.00;98812.88;4952600;29;19932;-82
2022/11/15 11:25:28;;;;;;;;;;;;;;;8.77;100.00;98807.50;4953521;29;19919;-82
2022/11/15 11:27:56;;;;;;;;;;;;;;;8.77;100.00;98808.34;4943996;28;20017;-82
2022/11/15 11:30:27;;;;;;;;;;;;;;;8.82;100.00;98801.06;4947682;29;20337;-82
2022/11/15 11:33:10;;;;;;;;;;;;;;;8.81;100.00;98799.34;4937957;28;19922;-82
2022/11/15 11:35:54;;;;;;;;;;;;;;;8.87;100.00;98788.47;4954460;29;20035;-82
2022/11/15 11:38:38;;;;;;;;;;;;;;;8.88;100.00;98784.88;4954527;29;19918;-86
2022/11/15 11:41:12;;;;;;;;;;;;;;;8.87;100.00;98780.56;4968353;28;19945;-83
2022/11/15 11:43:40;;;;;;;;;;;;;;;8.89;100.00;98781.31;4954728;29;19922;-83
2022/11/15 11:46:11;;;;;;;;;;;;;;;8.91;100.00;98771.50;4944120;29;19971;-85
2022/11/15 11:48:41;;;;;;;;;;;;;;;8.95;100.00;98774.00;4934087;29;20371;-82
2022/11/15 11:51:16;;;;;;;;;;;;;;;8.99;100.00;98772.91;4947149;28;21752;-83
2022/11/15 11:54:01;;;;;;;;;;;;;;;9.01;100.00;98760.47;4949119;28;19923;-83
2022/11/15 11:56:34;;;;;;;;;;;;;;;9.01;100.00;98753.38;4933203;29;19919;-83
2022/11/15 11:59:12;;;;;;;;;;;;;;;9.04;100.00;98750.59;4934440;29;19930;-81
2022/11/15 12:01:41;;;;;;;;;;;;;;;9.05;100.00;98741.72;4939051;29;20371;-83
2022/11/15 12:04:15;;;;;;;;;;;;;;;9.09;100.00;98739.78;4933603;29;19926;-85
2022/11/15 12:06:49;;;;;;;;;;;;;;;9.11;100.00;98735.28;4934653;29;19926;-83
2022/11/15 12:09:33;;;;;;;;;;;;;;;9.13;100.00;98733.41;4934067;29;19927;-83
2022/11/15 12:12:03;;;;;;;;;;;;;;;9.16;100.00;98730.59;4947708;28;19923;-82
2022/11/15 12:14:28;;;;;;;;;;;;;;;9.12;100.00;98728.19;4942263;29;19922;-83
2022/11/15 12:17:03;;;;;;;;;;;;;;;8.48;100.00;98720.91;4934604;29;20390;-87
2022/11/15 12:19:29;;;;;;;;;;;;;;;8.12;100.00;98715.66;4935959;29;20020;-86
2022/11/15 12:22:06;;;;;;;;;;;;;;;7.88;100.00;98709.84;4934373;29;19923;-83
2022/11/15 12:24:37;;;;;;;;;;;;;;;7.73;100.00;98706.16;4923622;29;19925;-83
2022/11/15 12:27:15;;;;;;;;;;;;;;;7.66;100.00;98697.69;4935652;29;19923;-82
2022/11/15 12:29:44;;;;;;;;;;;;;;;7.59;100.00;98696.28;4934389;29;20291;-85
2022/11/15 12:32:26;;;;;;;;;;;;;;;7.50;100.00;98686.16;4951330;28;20294;-82
2022/11/15 12:34:52;;;;;;;;;;;;;;;7.45;100.00;98681.97;4954445;29;19914;-82
2022/11/15 12:37:35;;;;;;;;;;;;;;;7.36;100.00;98685.06;4942188;28;19955;-83
2022/11/15 12:40:17;;;;;;;;;;;;;;;7.36;100.00;98685.06;4937257;29;20073;-82
2022/11/15 12:42:57;;;;;;;;;;;;;;;7.28;100.00;98680.13;4938579;29;20389;-83
2022/11/15 12:45:24;;;;;;;;;;;;;;;7.28;100.00;98672.22;4938437;29;19923;-83
2022/11/15 12:47:50;;;;;;;;;;;;;;;7.26;100.00;98666.19;4937334;29;19923;-82
2022/11/15 12:50:16;;;;;;;;;;;;;;;7.19;100.00;98667.38;4937480;29;19926;-81
2022/11/15 12:53:14;;;;;;;;;;;;;;;7.18;100.00;98670.97;4938385;29;20010;-83
2022/11/15 12:55:39;;;;;;;;;;;;;;;7.12;100.00;98662.50;4925299;29;19915;-82
2022/11/15 12:58:26;;;;;;;;;;;;;;;7.08;100.00;98662.66;4937616;29;19930;-85
2022/11/15 13:00:52;;;;;;;;;;;;;;;7.03;100.00;98659.34;4936935;29;19923;-84
2022/11/15 13:03:23;;;;;;;;;;;;;;;7.03;100.00;98654.06;4938116;29;19923;-82
2022/11/15 13:05:54;;;;;;;;;;;;;;;7.00;100.00;98659.47;4938115;29;19974;-82
2022/11/15 13:08:40;;;;;;;;;;;;;;;6.99;100.00;98652.53;4952595;29;19926;-84
2022/11/15 13:11:23;;;;;;;;;;;;;;;6.95;100.00;98650.09;4936543;29;19919;-85
2022/11/15 13:13:49;;;;;;;;;;;;;;;6.91;100.00;98637.06;4936688;29;19966;-83
2022/11/15 13:16:19;;;;;;;;;;;;;;;6.87;100.00;98627.59;4937844;29;19919;-82
2022/11/15 13:18:52;;;;;;;;;;;;;;;6.87;100.00;98619.69;4937778;29;19919;-83
2022/11/15 13:24:04;;;;;;;;;;;;;;;6.81;100.00;98613.88;4937993;29;19966;-81
2022/11/15 13:26:29;;;;;;;;;;;;;;;6.77;100.00;98599.16;4935225;29;19923;-83
2022/11/15 13:28:55;;;;;;;;;;;;;;;6.75;100.00;98600.97;4935932;29;19921;-82
2022/11/15 13:31:25;;;;;;;;;;;;;;;6.77;100.00;98591.25;4940029;29;20306;-84
2022/11/15 13:33:52;;;;;;;;;;;;;;;6.72;100.00;98589.66;4952414;29;19919;-83
2022/11/15 13:36:25;;;;;;;;;;;;;;;6.70;100.00;98577.50;4936649;29;20390;-83
2022/11/15 13:38:57;;;;;;;;;;;;;;;6.69;100.00;98576.66;4936944;29;20330;-83
2022/11/15 13:41:24;;;;;;;;;;;;;;;6.68;100.00;98568.81;4933535;29;20347;-81
2022/11/15 13:43:50;;;;;;;;;;;;;;;6.67;100.00;98561.84;4936797;29;19919;-81
2022/11/15 13:46:19;;;;;;;;;;;;;;;6.67;100.00;98565.34;4948710;29;19926;-83
2022/11/15 13:48:45;;;;;;;;;;;;;;;6.64;100.00;98557.59;4939663;29;20290;-82
2022/11/15 13:51:18;;;;;;;;;;;;;;;6.61;100.00;98552.47;4936372;29;19923;-83
2022/11/15 13:53:46;;;;;;;;;;;;;;;6.64;100.00;98546.22;4936546;29;19946;-82
2022/11/15 13:56:12;;;;;;;;;;;;;;;6.60;100.00;98540.22;4935055;29;19957;-82
2022/11/15 13:58:38;;;;;;;;;;;;;;;6.57;100.00;98540.34;4936944;29;20021;-83
2022/11/15 14:01:04;;;;;;;;;;;;;;;6.54;100.00;98537.88;4937047;29;19922;-82
2022/11/15 14:03:31;;;;;;;;;;;;;;;6.54;100.00;98540.50;4937237;29;19929;-83
2022/11/15 14:06:06;;;;;;;;;;;;;;;6.53;100.00;98536.19;4934269;29;20298;-83
2022/11/15 14:08:31;;;;;;;;;;;;;;;6.51;100.00;98525.72;4935205;29;19927;-83
2022/11/15 14:11:16;;;;;;;;;;;;;;;6.50;100.00;98523.16;4934991;29;19930;-83
2022/11/15 14:13:58;;;;;;;;;;;;;;;6.45;100.00;98519.91;4936822;29;19966;-82
2022/11/15 14:16:32;;;;;;;;;;;;;;;6.43;100.00;98513.81;4932333;29;20010;-79
2022/11/15 14:18:57;;;;;;;;;;;;;;;6.44;100.00;98507.66;4936009;29;19966;-83
2022/11/15 14:21:22;;;;;;;;;;;;;;;6.40;100.00;98508.69;4936117;29;19961;-81
2022/11/15 14:23:48;;;;;;;;;;;;;;;6.41;100.00;98507.78;4934508;29;19922;-85
2022/11/15 14:26:28;;;;;;;;;;;;;;;6.35;100.00;98494.00;4934689;29;19926;-82
2022/11/15 14:28:53;;;;;;;;;;;;;;;6.38;100.00;98497.41;4936053;29;19967;-83
2022/11/15 14:31:19;;;;;;;;;;;;;;;6.33;100.00;98503.75;4935544;29;19923;-85
2022/11/15 14:33:45;;;;;;;;;;;;;;;6.30;100.00;98490.75;4941182;29;19923;-83
2022/11/15 14:36:12;;;;;;;;;;;;;;;6.32;100.00;98493.28;4935862;29;19978;-83
2022/11/15 14:38:37;;;;;;;;;;;;;;;6.28;100.00;98497.81;4937208;29;20429;-81
2022/11/15 14:41:03;;;;;;;;;;;;;;;6.30;100.00;98485.47;4954339;28;19926;-83
2022/11/15 14:43:28;;;;;;;;;;;;;;;6.26;100.00;98485.69;4943544;28;20575;-83
2022/11/15 14:45:53;;;;;;;;;;;;;;;6.22;100.00;98477.06;4934938;29;19930;-80
2022/11/15 14:48:18;;;;;;;;;;;;;;;6.21;100.00;98485.88;4942546;29;19929;-80
2022/11/15 14:50:44;;;;;;;;;;;;;;;6.20;100.00;98481.53;4936015;29;20024;-81
2022/11/15 14:53:17;;;;;;;;;;;;;;;6.20;100.00;98484.16;4935599;29;20298;-84
2022/11/15 14:55:42;;;;;;;;;;;;;;;6.20;100.00;98483.31;4933750;29;19923;-86
2022/11/15 14:58:07;;;;;;;;;;;;;;;6.39;100.00;98472.81;4937998;29;20294;-83
2022/11/15 15:00:37;;;;;;;;;;;;;;;6.89;100.00;98465.13;4954599;28;19937;-84
2022/11/15 15:03:03;;;;;;;;;;;;;;;7.21;100.00;98464.44;4936313;29;19922;-82
2022/11/15 15:05:39;;;;;;;;;;;;;;;7.36;100.00;98466.31;4937154;28;19922;-81
2022/11/15 15:08:04;;;;;;;;;;;;;;;7.58;100.00;98460.81;4934928;29;19926;-81
2022/11/15 15:10:31;;;;;;;;;;;;;;;7.69;100.00;98462.91;4934779;29;20406;-83
2022/11/15 15:12:57;;;;;;;;;;;;;;;7.76;100.00;98448.44;4936015;29;19918;-81
2022/11/15 15:15:24;;;;;;;;;;;;;;;7.84;100.00;98449.84;4935202;29;19922;-82
2022/11/15 15:17:50;;;;;;;;;;;;;;;7.96;100.00;98443.88;4935289;29;20635;-83
2022/11/15 15:20:16;;;;;;;;;;;;;;;8.06;100.00;98439.84;4934732;29;19928;-85
2022/11/15 15:22:41;;;;;;;;;;;;;;;8.10;100.00;98438.72;4935927;29;19933;-82
2022/11/15 15:25:20;;;;;;;;;;;;;;;8.17;100.00;98434.00;4932802;29;19918;-82
2022/11/15 15:27:46;;;;;;;;;;;;;;;8.23;100.00;98435.44;4935688;29;19930;-85
2022/11/15 15:30:11;;;;;;;;;;;;;;;8.26;100.00;98436.09;4933960;29;19918;-84
2022/11/15 15:32:36;;;;;;;;;;;;;;;8.34;100.00;98435.69;4935867;29;19929;-84
2022/11/15 15:35:01;;;;;;;;;;;;;;;8.39;100.00;98431.00;4935590;29;19918;-85
2022/11/15 15:37:27;;;;;;;;;;;;;;;8.43;100.00;98432.56;4943756;28;19923;-84
2022/11/15 15:39:53;;;;;;;;;;;;;;;8.46;100.00;98431.56;4933910;29;19923;-84
2022/11/15 15:42:19;;;;;;;;;;;;;;;8.53;100.00;98432.91;4934498;29;19929;-83
2022/11/15 15:44:45;;;;;;;;;;;;;;;8.53;100.00;98433.75;4935379;29;19966;-84
2022/11/15 15:47:18;;;;;;;;;;;;;;;8.59;100.00;98435.22;4935778;29;19966;-87
2022/11/15 15:49:44;;;;;;;;;;;;;;;8.64;100.00;98433.16;4932081;29;19930;-81
2022/11/15 15:52:09;;;;;;;;;;;;;;;8.67;100.00;98432.16;4935629;29;19923;-81
2022/11/15 15:54:34;;;;;;;;;;;;;;;8.71;100.00;98436.28;4944252;28;19953;-83
2022/11/15 15:57:00;;;;;;;;;;;;;;;8.74;100.00;98430.84;4939126;29;19919;-82
2022/11/15 15:59:25;;;;;;;;;;;;;;;8.77;100.00;98440.38;4938820;28;19923;-82
2022/11/15 16:01:50;;;;;;;;;;;;;;;8.78;100.00;98432.38;4939519;29;19918;-83
2022/11/15 16:04:15;;;;;;;;;;;;;;;8.84;100.00;98429.41;4953661;29;19921;-81
2022/11/15 16:06:44;;;;;;;;;;;;;;;8.84;100.00;98431.16;4938157;28;20350;-83
2022/11/15 16:09:59;;;;;;;;;;;;;;;8.85;100.00;98428.44;4939157;29;19918;-81
2022/11/15 16:12:04;;;;;;;;;;;;;;;8.91;100.00;98416.69;4938400;29;19954;-82
2022/11/15 16:14:30;;;;;;;;;;;;;;;8.94;100.00;98421.78;4937012;29;19994;-81
2022/11/15 16:16:55;;;;;;;;;;;;;;;8.97;100.00;98420.78;4940601;29;19918;-83
2022/11/15 16:19:21;;;;;;;;;;;;;;;9.00;100.00;98410.88;4940987;29;19929;-83
2022/11/15 16:21:46;;;;;;;;;;;;;;;9.01;100.00;98409.91;4938638;29;19930;-83
2022/11/15 16:24:11;;;;;;;;;;;;;;;9.04;100.00;98411.53;4935312;29;19923;-82
2022/11/15 16:26:37;;;;;;;;;;;;;;;9.05;100.00;98407.97;4935982;29;19933;-83
2022/11/15 16:29:02;;;;;;;;;;;;;;;9.11;100.00;98404.97;4940108;29;20009;-83
2022/11/15 16:31:27;;;;;;;;;;;;;;;9.13;100.00;98404.88;4935507;29;19978;-82
2022/11/15 16:33:52;;;;;;;;;;;;;;;9.14;100.00;98396.81;4937166;29;20279;-82
2022/11/15 16:36:18;;;;;;;;;;;;;;;9.13;100.00;98400.44;4940319;29;19922;-84
2022/11/15 16:38:43;;;;;;;;;;;;;;;9.09;100.00;98398.91;4957542;28;19918;-85
2022/11/15 16:41:08;;;;;;;;;;;;;;;8.46;100.00;98400.72;4945993;28;19982;-83
2022/11/15 16:43:39;;;;;;;;;;;;;;;8.09;100.00;98391.31;4935260;29;20298;-85
2022/11/15 16:46:12;;;;;;;;;;;;;;;7.92;100.00;98394.91;4938739;29;19990;-85
2022/11/15 16:48:39;;;;;;;;;;;;;;;7.77;100.00;98388.63;4934738;29;20293;-85
2022/11/15 16:51:04;;;;;;;;;;;;;;;7.67;100.00;98385.66;4938190;29;19959;-84
2022/11/15 16:53:29;;;;;;;;;;;;;;;7.61;100.00;98385.97;4935762;29;19962;-82
2022/11/15 16:55:55;;;;;;;;;;;;;;;7.52;100.00;98374.13;4934528;29;19923;-82
2022/11/15 16:58:20;;;;;;;;;;;;;;;7.48;100.00;98369.09;4936632;29;19923;-83
2022/11/15 17:00:49;;;;;;;;;;;;;;;7.41;100.00;98379.13;4935475;29;19927;-82
2022/11/15 17:03:14;;;;;;;;;;;;;;;7.38;100.00;98379.28;4937426;29;19946;-82
2022/11/15 17:05:39;;;;;;;;;;;;;;;7.34;100.00;98385.63;4937182;29;20367;-83
2022/11/15 17:08:05;;;;;;;;;;;;;;;7.29;100.00;98385.88;4935747;29;19930;-86
2022/11/15 17:10:30;;;;;;;;;;;;;;;7.26;100.00;98386.06;4935251;29;19927;-83
2022/11/15 17:12:55;;;;;;;;;;;;;;;7.21;100.00;98385.41;4937910;29;19997;-82
2022/11/15 17:15:23;;;;;;;;;;;;;;;7.19;100.00;98387.28;4935682;29;19941;-81
2022/11/15 17:17:52;;;;;;;;;;;;;;;7.15;100.00;98388.34;4937745;29;19925;-82
2022/11/15 17:20:18;;;;;;;;;;;;;;;7.11;100.00;98389.47;4936571;29;19925;-82
2022/11/15 17:22:44;;;;;;;;;;;;;;;7.11;100.00;98392.09;4936441;29;19927;-83
2022/11/15 17:25:09;;;;;;;;;;;;;;;7.06;100.00;98382.63;4936625;29;20293;-83
2022/11/15 17:27:34;;;;;;;;;;;;;;;7.02;100.00;98378.47;4937722;29;19919;-83
2022/11/15 17:30:00;;;;;;;;;;;;;;;6.98;100.00;98379.53;4936692;29;19927;-83
2022/11/15 17:32:25;;;;;;;;;;;;;;;6.95;100.00;98370.97;4937167;29;19966;-83
2022/11/15 17:34:50;;;;;;;;;;;;;;;6.96;100.00;98367.41;4935795;29;20330;-82
2022/11/15 17:37:15;;;;;;;;;;;;;;;6.91;100.00;98375.53;4945569;29;19986;-83
2022/11/15 17:39:41;;;;;;;;;;;;;;;6.85;100.00;98370.56;4930754;29;20078;-82
2022/11/15 17:42:06;;;;;;;;;;;;;;;6.85;100.00;98370.56;4930796;29;19978;-82
2022/11/15 17:44:31;;;;;;;;;;;;;;;6.82;100.00;98376.00;4929508;29;19974;-82
2022/11/15 17:46:56;;;;;;;;;;;;;;;6.77;100.00;98359.56;4931549;29;20057;-82
2022/11/15 17:49:22;;;;;;;;;;;;;;;6.73;100.00;98362.34;4935569;29;20021;-82
2022/11/15 17:51:47;;;;;;;;;;;;;;;6.72;100.00;98359.81;4935025;29;20399;-82
2022/11/15 17:54:13;;;;;;;;;;;;;;;6.67;100.00;98357.41;4928856;29;20033;-82
2022/11/15 17:56:39;;;;;;;;;;;;;;;6.65;100.00;98356.63;4934981;29;19923;-83
2022/11/15 17:59:04;;;;;;;;;;;;;;;6.65;100.00;98361.88;4936967;28;19946;-82
2022/11/15 18:01:30;;;;;;;;;;;;;;;6.63;100.00;98350.56;4936563;29;20390;-82
2022/11/15 18:03:59;;;;;;;;;;;;;;;6.57;100.00;98350.88;4935822;29;19918;-82
2022/11/15 18:06:25;;;;;;;;;;;;;;;6.57;100.00;98348.22;4936918;29;19922;-82
2022/11/15 18:08:51;;;;;;;;;;;;;;;6.55;100.00;98347.47;4936673;29;20375;-83
2022/11/15 18:11:18;;;;;;;;;;;;;;;6.52;100.00;98343.19;4934615;29;20062;-82
2022/11/15 18:13:44;;;;;;;;;;;;;;;6.53;100.00;98338.81;4936895;29;19923;-82
2022/11/15 18:16:12;;;;;;;;;;;;;;;6.50;100.00;98339.78;4945999;29;19923;-82
2022/11/15 18:18:37;;;;;;;;;;;;;;;6.49;100.00;98337.25;4954534;28;19918;-82
2022/11/15 18:21:03;;;;;;;;;;;;;;;6.46;100.00;98335.63;4955885;28;19919;-81
2022/11/15 18:23:29;;;;;;;;;;;;;;;6.44;100.00;98339.25;4955893;28;19926;-82
2022/11/15 18:25:54;;;;;;;;;;;;;;;6.44;100.00;98331.34;4954688;28;19918;-82
2022/11/15 18:28:21;;;;;;;;;;;;;;;6.38;100.00;98326.38;4955828;28;20289;-83
2022/11/15 18:30:46;;;;;;;;;;;;;;;6.36;100.00;98326.47;4955609;28;20373;-82
2022/11/15 18:33:11;;;;;;;;;;;;;;;6.34;100.00;98329.16;4940022;28;20018;-82
2022/11/15 18:35:37;;;;;;;;;;;;;;;6.35;100.00;98324.75;4936346;29;20279;-83
2022/11/15 18:38:02;;;;;;;;;;;;;;;6.32;100.00;98315.25;4936520;29;19925;-82
2022/11/15 18:40:27;;;;;;;;;;;;;;;6.31;100.00;98315.31;4935203;29;19919;-83
2022/11/15 18:42:55;;;;;;;;;;;;;;;6.29;100.00;98310.13;4936311;29;19938;-81
2022/11/15 18:45:20;;;;;;;;;;;;;;;6.24;100.00;98314.78;4935130;29;20017;-82
2022/11/15 18:47:46;;;;;;;;;;;;;;;6.27;100.00;98314.63;4936243;29;20022;-83
2022/11/15 18:50:11;;;;;;;;;;;;;;;6.26;100.00;98309.44;4936188;29;20362;-83
2022/11/15 18:52:36;;;;;;;;;;;;;;;6.20;100.00;98318.47;4934856;29;19966;-83
2022/11/15 18:55:02;;;;;;;;;;;;;;;6.18;100.00;98322.97;4934927;29;19922;-83
2022/11/15 18:57:27;;;;;;;;;;;;;;;6.19;100.00;98324.66;4936055;29;19914;-84
2022/11/15 18:59:52;;;;;;;;;;;;;;;6.20;100.00;98315.84;4934658;29;19989;-84
2022/11/15 19:02:18;;;;;;;;;;;;;;;6.17;100.00;98313.34;4936009;29;19923;-84
2022/11/15 19:04:43;;;;;;;;;;;;;;;6.16;100.00;98299.34;4951179;29;19926;-83
2022/11/15 19:07:08;;;;;;;;;;;;;;;6.14;100.00;98300.34;4936750;28;20025;-83
2022/11/15 19:09:34;;;;;;;;;;;;;;;6.13;100.00;98299.50;4935067;29;20282;-83
2022/11/15 19:11:59;;;;;;;;;;;;;;;6.12;100.00;98291.69;4934543;29;19946;-84
2022/11/15 19:14:26;;;;;;;;;;;;;;;6.12;100.00;98283.81;4935936;29;19923;-84
2022/11/15 19:16:52;;;;;;;;;;;;;;;6.10;100.00;98285.66;4934594;29;20370;-83
2022/11/15 19:19:18;;;;;;;;;;;;;;;6.09;100.00;98282.16;4935681;29;19954;-83
2022/11/15 19:21:43;;;;;;;;;;;;;;;6.17;100.00;98285.28;4935857;29;19946;-83
2022/11/15 19:24:11;;;;;;;;;;;;;;;6.67;100.00;98267.91;4935877;29;20358;-83
2022/11/15 19:26:37;;;;;;;;;;;;;;;7.06;100.00;98276.44;4934612;29;19925;-85
2022/11/15 19:29:06;;;;;;;;;;;;;;;7.31;100.00;98277.75;4936635;29;19961;-82
2022/11/15 19:31:32;;;;;;;;;;;;;;;7.46;100.00;98263.78;4939619;29;19922;-82
2022/11/15 19:34:03;;;;;;;;;;;;;;;7.57;100.00;98257.91;4948627;29;20351;-83
2022/11/15 19:36:32;;;;;;;;;;;;;;;7.70;100.00;98263.38;4939884;29;20413;-81
2022/11/15 19:38:59;;;;;;;;;;;;;;;7.77;100.00;98262.94;4939885;29;20302;-82
2022/11/15 19:41:24;;;;;;;;;;;;;;;7.87;100.00;98259.81;4938441;29;19973;-82
2022/11/15 19:43:50;;;;;;;;;;;;;;;7.98;100.00;98258.25;4939118;29;19974;-82
2022/11/15 19:46:16;;;;;;;;;;;;;;;8.07;100.00;98253.38;4939722;29;20355;-82
2022/11/15 19:48:42;;;;;;;;;;;;;;;8.12;100.00;98254.84;4939872;29;20029;-83
2022/11/15 19:51:09;;;;;;;;;;;;;;;8.18;100.00;98249.22;4953847;29;19991;-82
2022/11/15 19:53:35;;;;;;;;;;;;;;;8.24;100.00;98252.44;4958590;28;19919;-82